Garvin, Oklahoma
Current Conditions -  °F | °C
As of 10:15 AM on Thursday 18 Dec 2014 (Local Time) from K4O4 Reporting Station
Overcast Overcast  
Wind Chill: 34°   Ceiling: 400
Heat Index: 39°   Visibility: 1.7mi
Dew Point: 37°   Wind: 7mph
Humidity: 93%   Direction: 70°ENE
Pressure: 30.21"   Gusts: NA
Location:  33.95°N, 94.94°W
Report Text: K4O4 181615Z AUTO 07006KT 1 3/4SM OVC004 04/03 A3021 RMK AO2
Loading
Personal Weather Stations






























Interactive Weather Map New forecast layout! Learn more

10-Day Weather Forecast

Advertisements
Track Severe Weather on mobile